sensor_id;sensor_type;location;lat;lon;timestamp;pressure;altitude;pressure_sealevel;temperature;humidity
75629;BME280;64213;46.452;16.994;2023-05-07T00:00:05;99890.56;;;15.68;92.46
75629;BME280;64213;46.452;16.994;2023-05-07T00:03:11;99884.94;;;15.71;92.13
75629;BME280;64213;46.452;16.994;2023-05-07T00:06:15;99883.97;;;15.72;91.12
75629;BME280;64213;46.452;16.994;2023-05-07T00:09:21;99884.69;;;15.74;91.13
75629;BME280;64213;46.452;16.994;2023-05-07T00:12:23;99877.78;;;15.71;90.77
75629;BME280;64213;46.452;16.994;2023-05-07T00:15:26;99882.28;;;15.71;90.58
75629;BME280;64213;46.452;16.994;2023-05-07T00:18:29;99882.28;;;15.71;90.58
75629;BME280;64213;46.452;16.994;2023-05-07T00:21:31;99884.69;;;15.74;90.63
75629;BME280;64213;46.452;16.994;2023-05-07T00:24:33;99879.09;;;15.77;90.10
75629;BME280;64213;46.452;16.994;2023-05-07T00:27:36;99881.59;;;15.78;89.57
75629;BME280;64213;46.452;16.994;2023-05-07T00:30:38;99881.59;;;15.78;90.02
75629;BME280;64213;46.452;16.994;2023-05-07T00:33:40;99873.47;;;15.80;90.56
75629;BME280;64213;46.452;16.994;2023-05-07T00:36:42;99876.41;;;15.77;90.48
75629;BME280;64213;46.452;16.994;2023-05-07T00:39:45;99877.38;;;15.76;90.70
75629;BME280;64213;46.452;16.994;2023-05-07T00:42:47;99881.31;;;15.72;90.85
75629;BME280;64213;46.452;16.994;2023-05-07T00:45:51;99882.97;;;15.73;90.57
75629;BME280;64213;46.452;16.994;2023-05-07T00:48:53;99880.63;;;15.70;90.38
75629;BME280;64213;46.452;16.994;2023-05-07T00:51:55;99872.88;;;15.67;90.59
75629;BME280;64213;46.452;16.994;2023-05-07T00:55:01;99879.87;;;15.68;89.73
75629;BME280;64213;46.452;16.994;2023-05-07T00:58:06;99874.28;;;15.71;89.87
75629;BME280;64213;46.452;16.994;2023-05-07T01:01:08;99881.44;;;15.70;89.50
75629;BME280;64213;46.452;16.994;2023-05-07T01:04:10;99870.78;;;15.70;89.17
75629;BME280;64213;46.452;16.994;2023-05-07T01:07:12;99869.22;;;15.68;89.23
75629;BME280;64213;46.452;16.994;2023-05-07T01:10:15;99877.31;;;15.66;89.32
75629;BME280;64213;46.452;16.994;2023-05-07T01:13:18;99875.34;;;15.58;89.60
75629;BME280;64213;46.452;16.994;2023-05-07T01:16:20;99865.00;;;15.44;90.24
75629;BME280;64213;46.452;16.994;2023-05-07T01:19:23;99872.00;;;15.35;90.71
75629;BME280;64213;46.452;16.994;2023-05-07T01:22:31;99871.44;;;15.32;91.78
75629;BME280;64213;46.452;16.994;2023-05-07T01:25:34;99874.94;;;15.32;91.85
75629;BME280;64213;46.452;16.994;2023-05-07T01:28:36;99887.44;;;15.32;91.46
75629;BME280;64213;46.452;16.994;2023-05-07T01:31:40;99890.03;;;15.22;91.79
75629;BME280;64213;46.452;16.994;2023-05-07T01:34:45;99891.41;;;15.17;92.04
75629;BME280;64213;46.452;16.994;2023-05-07T01:37:48;99889.19;;;15.01;93.12
75629;BME280;64213;46.452;16.994;2023-05-07T01:40:51;99886.78;;;14.98;93.18
75629;BME280;64213;46.452;16.994;2023-05-07T01:43:54;99891.81;;;14.91;94.46
75629;BME280;64213;46.452;16.994;2023-05-07T01:46:57;99899.91;;;14.89;94.78
75629;BME280;64213;46.452;16.994;2023-05-07T01:49:59;99891.16;;;14.78;94.88
75629;BME280;64213;46.452;16.994;2023-05-07T01:53:02;99895.53;;;14.68;94.39
75629;BME280;64213;46.452;16.994;2023-05-07T01:56:05;99892.53;;;14.61;95.18
75629;BME280;64213;46.452;16.994;2023-05-07T01:59:07;99897.50;;;14.65;96.04
75629;BME280;64213;46.452;16.994;2023-05-07T02:02:09;99890.59;;;14.63;95.61
75629;BME280;64213;46.452;16.994;2023-05-07T02:05:11;99883.72;;;14.60;95.97
75629;BME280;64213;46.452;16.994;2023-05-07T02:08:13;99883.53;;;14.52;95.33
75629;BME280;64213;46.452;16.994;2023-05-07T02:11:15;99881.81;;;14.51;95.59
75629;BME280;64213;46.452;16.994;2023-05-07T02:14:17;99888.69;;;14.54;95.86
75629;BME280;64213;46.452;16.994;2023-05-07T02:17:19;99888.59;;;14.55;95.80
75629;BME280;64213;46.452;16.994;2023-05-07T02:20:21;99893.19;;;14.53;95.78
75629;BME280;64213;46.452;16.994;2023-05-07T02:23:23;99888.44;;;14.57;95.78
75629;BME280;64213;46.452;16.994;2023-05-07T02:26:25;99889.06;;;14.49;96.05
75629;BME280;64213;46.452;16.994;2023-05-07T02:29:27;99884.34;;;14.41;95.92
75629;BME280;64213;46.452;16.994;2023-05-07T02:32:29;99878.44;;;14.38;96.31
75629;BME280;64213;46.452;16.994;2023-05-07T02:35:31;99882.53;;;14.42;96.50
75629;BME280;64213;46.452;16.994;2023-05-07T02:38:34;99889.81;;;14.40;96.19
75629;BME280;64213;46.452;16.994;2023-05-07T02:41:36;99883.19;;;14.34;96.52
75629;BME280;64213;46.452;16.994;2023-05-07T02:44:38;99886.81;;;14.33;96.59
75629;BME280;64213;46.452;16.994;2023-05-07T02:47:40;99884.03;;;14.35;96.96
75629;BME280;64213;46.452;16.994;2023-05-07T02:50:42;99865.88;;;14.40;96.55
75629;BME280;64213;46.452;16.994;2023-05-07T02:53:44;99868.66;;;14.38;96.21
75629;BME280;64213;46.452;16.994;2023-05-07T02:56:46;99869.63;;;14.37;96.24
75629;BME280;64213;46.452;16.994;2023-05-07T02:59:48;99870.97;;;14.32;96.21
75629;BME280;64213;46.452;16.994;2023-05-07T03:02:50;99885.25;;;14.31;96.90
75629;BME280;64213;46.452;16.994;2023-05-07T03:05:52;99887.44;;;14.26;97.11
75629;BME280;64213;46.452;16.994;2023-05-07T03:08:54;99891.56;;;14.30;97.14
75629;BME280;64213;46.452;16.994;2023-05-07T03:11:57;99894.56;;;14.25;96.99
75629;BME280;64213;46.452;16.994;2023-05-07T03:14:59;99893.25;;;14.19;97.27
75629;BME280;64213;46.452;16.994;2023-05-07T03:18:01;99900.28;;;14.21;97.47
75629;BME280;64213;46.452;16.994;2023-05-07T03:21:03;99897.03;;;14.06;97.42
75629;BME280;64213;46.452;16.994;2023-05-07T03:24:05;99897.88;;;14.06;97.58
75629;BME280;64213;46.452;16.994;2023-05-07T03:27:07;99905.41;;;14.01;97.81
75629;BME280;64213;46.452;16.994;2023-05-07T03:30:10;99905.66;;;13.98;98.23
75629;BME280;64213;46.452;16.994;2023-05-07T03:33:13;99905.41;;;13.90;98.35
75629;BME280;64213;46.452;16.994;2023-05-07T03:36:15;99896.97;;;13.85;98.33
75629;BME280;64213;46.452;16.994;2023-05-07T03:39:17;99895.66;;;13.79;98.72
75629;BME280;64213;46.452;16.994;2023-05-07T03:42:19;99897.56;;;13.77;99.00
75629;BME280;64213;46.452;16.994;2023-05-07T03:45:21;99904.72;;;13.77;99.26
75629;BME280;64213;46.452;16.994;2023-05-07T03:48:23;99906.62;;;13.75;99.39
75629;BME280;64213;46.452;16.994;2023-05-07T03:51:26;99904.94;;;13.73;100.00
75629;BME280;64213;46.452;16.994;2023-05-07T03:54:30;99909.03;;;13.78;100.00
75629;BME280;64213;46.452;16.994;2023-05-07T03:57:32;99918.50;;;13.82;100.00
75629;BME280;64213;46.452;16.994;2023-05-07T04:00:34;99920.16;;;13.83;100.00
75629;BME280;64213;46.452;16.994;2023-05-07T04:03:39;99919.34;;;13.82;99.92
75629;BME280;64213;46.452;16.994;2023-05-07T04:06:42;99925.94;;;13.88;99.96
75629;BME280;64213;46.452;16.994;2023-05-07T04:09:44;99926.44;;;13.93;99.95
75629;BME280;64213;46.452;16.994;2023-05-07T04:12:46;99921.72;;;13.96;99.74
75629;BME280;64213;46.452;16.994;2023-05-07T04:15:48;99928.22;;;14.04;99.37
75629;BME280;64213;46.452;16.994;2023-05-07T04:18:50;99936.09;;;13.94;98.91
75629;BME280;64213;46.452;16.994;2023-05-07T04:21:53;99936.94;;;14.06;98.94
75629;BME280;64213;46.452;16.994;2023-05-07T04:24:55;99940.69;;;14.14;98.58
75629;BME280;64213;46.452;16.994;2023-05-07T04:27:57;99948.91;;;14.11;98.26
75629;BME280;64213;46.452;16.994;2023-05-07T04:31:00;99946.00;;;14.14;98.01
75629;BME280;64213;46.452;16.994;2023-05-07T04:34:02;99950.84;;;14.09;97.89
75629;BME280;64213;46.452;16.994;2023-05-07T04:37:04;99946.50;;;14.08;97.93
75629;BME280;64213;46.452;16.994;2023-05-07T04:40:06;99948.91;;;14.11;97.71
75629;BME280;64213;46.452;16.994;2023-05-07T04:43:09;99953.84;;;14.16;97.71
75629;BME280;64213;46.452;16.994;2023-05-07T04:46:11;99957.25;;;14.18;97.40
75629;BME280;64213;46.452;16.994;2023-05-07T04:49:13;99957.72;;;14.23;97.37
75629;BME280;64213;46.452;16.994;2023-05-07T04:52:15;99960.97;;;14.27;97.02
75629;BME280;64213;46.452;16.994;2023-05-07T04:55:18;99956.50;;;14.27;96.74
75629;BME280;64213;46.452;16.994;2023-05-07T04:58:20;99964.50;;;14.27;96.88
75629;BME280;64213;46.452;16.994;2023-05-07T05:01:22;99966.66;;;14.33;96.67
75629;BME280;64213;46.452;16.994;2023-05-07T05:04:24;99964.09;;;14.43;96.44
75629;BME280;64213;46.452;16.994;2023-05-07T05:07:27;99964.78;;;14.45;96.25
75629;BME280;64213;46.452;16.994;2023-05-07T05:10:30;99969.66;;;14.51;95.95
75629;BME280;64213;46.452;16.994;2023-05-07T05:13:32;99961.78;;;14.38;96.17
75629;BME280;64213;46.452;16.994;2023-05-07T05:16:34;99971.37;;;14.52;95.81
75629;BME280;64213;46.452;16.994;2023-05-07T05:19:36;99975.69;;;14.64;95.41
75629;BME280;64213;46.452;16.994;2023-05-07T05:22:39;99979.78;;;14.69;95.09
75629;BME280;64213;46.452;16.994;2023-05-07T05:25:41;99982.38;;;14.80;94.64
75629;BME280;64213;46.452;16.994;2023-05-07T05:28:43;99979.78;;;15.01;94.13
75629;BME280;64213;46.452;16.994;2023-05-07T05:31:45;99980.69;;;15.11;93.54
75629;BME280;64213;46.452;16.994;2023-05-07T05:34:47;99982.50;;;15.10;93.58
75629;BME280;64213;46.452;16.994;2023-05-07T05:37:49;99977.91;;;15.13;93.38
75629;BME280;64213;46.452;16.994;2023-05-07T05:40:51;99983.16;;;15.24;93.08
75629;BME280;64213;46.452;16.994;2023-05-07T05:43:56;99987.47;;;15.36;92.61
75629;BME280;64213;46.452;16.994;2023-05-07T05:46:58;99983.28;;;15.43;91.94
75629;BME280;64213;46.452;16.994;2023-05-07T05:50:02;99986.16;;;15.51;91.63
75629;BME280;64213;46.452;16.994;2023-05-07T05:53:04;99987.13;;;15.71;91.11
75629;BME280;64213;46.452;16.994;2023-05-07T05:56:06;99980.25;;;15.99;90.28
75629;BME280;64213;46.452;16.994;2023-05-07T05:59:09;99993.25;;;16.33;88.66
75629;BME280;64213;46.452;16.994;2023-05-07T06:02:12;99992.91;;;16.47;88.27
75629;BME280;64213;46.452;16.994;2023-05-07T06:05:14;99987.63;;;16.86;86.88
75629;BME280;64213;46.452;16.994;2023-05-07T06:08:16;99990.03;;;17.09;85.53
75629;BME280;64213;46.452;16.994;2023-05-07T06:11:20;99986.00;;;17.71;83.30
75629;BME280;64213;46.452;16.994;2023-05-07T06:14:22;99984.25;;;17.89;81.80
75629;BME280;64213;46.452;16.994;2023-05-07T06:17:24;99981.00;;;18.69;78.62
75629;BME280;64213;46.452;16.994;2023-05-07T06:20:26;99985.16;;;19.17;77.54
75629;BME280;64213;46.452;16.994;2023-05-07T06:23:28;99988.16;;;19.58;74.74
75629;BME280;64213;46.452;16.994;2023-05-07T06:26:30;99991.22;;;19.63;74.67
75629;BME280;64213;46.452;16.994;2023-05-07T06:29:32;99982.59;;;19.77;73.56
75629;BME280;64213;46.452;16.994;2023-05-07T06:32:36;99981.00;;;20.27;71.37
75629;BME280;64213;46.452;16.994;2023-05-07T06:35:38;99991.88;;;20.67;70.80
75629;BME280;64213;46.452;16.994;2023-05-07T06:38:41;99994.97;;;21.22;68.62
75629;BME280;64213;46.452;16.994;2023-05-07T06:41:43;99986.91;;;20.97;69.09
75629;BME280;64213;46.452;16.994;2023-05-07T06:44:46;99982.19;;;21.56;66.83
75629;BME280;64213;46.452;16.994;2023-05-07T06:47:48;99989.41;;;21.64;64.83
75629;BME280;64213;46.452;16.994;2023-05-07T06:50:50;99985.47;;;21.91;65.50
75629;BME280;64213;46.452;16.994;2023-05-07T06:53:52;99987.81;;;22.02;64.57
75629;BME280;64213;46.452;16.994;2023-05-07T06:56:54;99982.72;;;22.08;64.65
75629;BME280;64213;46.452;16.994;2023-05-07T06:59:56;99983.47;;;21.85;64.83
75629;BME280;64213;46.452;16.994;2023-05-07T07:02:58;99977.09;;;21.78;64.67
75629;BME280;64213;46.452;16.994;2023-05-07T07:06:01;99975.31;;;22.18;63.35
75629;BME280;64213;46.452;16.994;2023-05-07T07:09:04;99981.94;;;22.69;61.93
75629;BME280;64213;46.452;16.994;2023-05-07T07:12:06;99985.84;;;22.67;61.25
75629;BME280;64213;46.452;16.994;2023-05-07T07:15:08;99984.75;;;23.07;59.96
75629;BME280;64213;46.452;16.994;2023-05-07T07:18:10;99986.13;;;23.26;59.68
75629;BME280;64213;46.452;16.994;2023-05-07T07:21:12;99998.00;;;23.55;59.41
75629;BME280;64213;46.452;16.994;2023-05-07T07:24:16;99986.84;;;23.20;59.98
75629;BME280;64213;46.452;16.994;2023-05-07T07:27:23;99997.59;;;23.43;59.50
75629;BME280;64213;46.452;16.994;2023-05-07T07:30:25;99997.78;;;23.41;59.78
75629;BME280;64213;46.452;16.994;2023-05-07T07:33:27;99996.00;;;23.72;58.37
75629;BME280;64213;46.452;16.994;2023-05-07T07:36:29;99993.09;;;24.32;57.25
75629;BME280;64213;46.452;16.994;2023-05-07T07:39:46;99996.31;;;24.06;58.35
75629;BME280;64213;46.452;16.994;2023-05-07T07:42:48;99991.31;;;24.40;56.15
75629;BME280;64213;46.452;16.994;2023-05-07T07:45:51;100004.59;;;24.86;56.65
75629;BME280;64213;46.452;16.994;2023-05-07T07:48:53;99997.12;;;25.31;54.22
75629;BME280;64213;46.452;16.994;2023-05-07T07:51:55;100002.13;;;24.91;55.29
75629;BME280;64213;46.452;16.994;2023-05-07T07:54:58;99999.19;;;24.86;55.54
75629;BME280;64213;46.452;16.994;2023-05-07T07:58:00;99992.75;;;23.91;58.75
75629;BME280;64213;46.452;16.994;2023-05-07T08:01:02;100005.84;;;23.64;59.36
75629;BME280;64213;46.452;16.994;2023-05-07T08:04:05;100004.62;;;23.67;59.34
75629;BME280;64213;46.452;16.994;2023-05-07T08:07:07;100005.72;;;23.43;60.14
75629;BME280;64213;46.452;16.994;2023-05-07T08:10:09;100002.19;;;23.19;60.82
75629;BME280;64213;46.452;16.994;2023-05-07T08:13:12;100006.59;;;22.89;61.75
75629;BME280;64213;46.452;16.994;2023-05-07T08:16:14;100007.19;;;23.08;61.33
75629;BME280;64213;46.452;16.994;2023-05-07T08:19:16;100009.03;;;23.07;60.48
75629;BME280;64213;46.452;16.994;2023-05-07T08:22:18;100010.47;;;23.56;59.61
75629;BME280;64213;46.452;16.994;2023-05-07T08:25:20;100008.88;;;23.84;59.73
75629;BME280;64213;46.452;16.994;2023-05-07T08:28:22;100008.19;;;24.93;56.82
75629;BME280;64213;46.452;16.994;2023-05-07T08:31:26;100007.38;;;25.63;54.86
75629;BME280;64213;46.452;16.994;2023-05-07T08:34:28;99997.50;;;26.12;51.55
75629;BME280;64213;46.452;16.994;2023-05-07T08:37:30;99999.56;;;24.82;56.38
75629;BME280;64213;46.452;16.994;2023-05-07T08:40:39;99999.31;;;24.99;56.25
75629;BME280;64213;46.452;16.994;2023-05-07T08:43:48;99999.31;;;26.39;52.53
75629;BME280;64213;46.452;16.994;2023-05-07T08:46:52;100003.41;;;25.59;54.04
75629;BME280;64213;46.452;16.994;2023-05-07T08:49:56;99997.97;;;25.87;53.59
75629;BME280;64213;46.452;16.994;2023-05-07T08:52:58;99995.88;;;26.17;51.11
75629;BME280;64213;46.452;16.994;2023-05-07T08:56:00;99998.59;;;26.17;50.53
75629;BME280;64213;46.452;16.994;2023-05-07T08:59:03;99998.69;;;24.61;54.16
75629;BME280;64213;46.452;16.994;2023-05-07T09:02:07;99998.69;;;24.82;53.94
75629;BME280;64213;46.452;16.994;2023-05-07T09:05:11;100001.31;;;25.12;53.42
75629;BME280;64213;46.452;16.994;2023-05-07T09:08:15;99998.22;;;25.64;52.33
75629;BME280;64213;46.452;16.994;2023-05-07T09:11:20;99993.63;;;26.28;49.97
75629;BME280;64213;46.452;16.994;2023-05-07T09:14:23;99991.41;;;26.03;49.67
75629;BME280;64213;46.452;16.994;2023-05-07T09:17:26;99985.59;;;26.13;49.35
75629;BME280;64213;46.452;16.994;2023-05-07T09:20:30;99984.00;;;26.25;49.26
75629;BME280;64213;46.452;16.994;2023-05-07T09:23:32;99984.25;;;26.98;47.47
75629;BME280;64213;46.452;16.994;2023-05-07T09:26:34;99985.72;;;27.01;46.63
75629;BME280;64213;46.452;16.994;2023-05-07T09:29:37;99993.25;;;26.44;48.47
75629;BME280;64213;46.452;16.994;2023-05-07T09:32:39;99994.66;;;26.75;47.21
75629;BME280;64213;46.452;16.994;2023-05-07T09:35:41;99994.06;;;26.99;47.02
75629;BME280;64213;46.452;16.994;2023-05-07T09:38:45;99991.81;;;27.09;45.88
75629;BME280;64213;46.452;16.994;2023-05-07T09:41:47;100003.09;;;27.59;45.14
75629;BME280;64213;46.452;16.994;2023-05-07T09:44:51;100000.88;;;26.55;45.74
75629;BME280;64213;46.452;16.994;2023-05-07T09:47:55;99996.84;;;27.39;44.99
75629;BME280;64213;46.452;16.994;2023-05-07T09:51:01;100000.97;;;27.02;45.89
75629;BME280;64213;46.452;16.994;2023-05-07T09:54:04;99994.47;;;26.96;45.84
75629;BME280;64213;46.452;16.994;2023-05-07T09:57:07;100001.47;;;27.32;45.04
75629;BME280;64213;46.452;16.994;2023-05-07T10:00:12;99995.47;;;26.62;46.28
75629;BME280;64213;46.452;16.994;2023-05-07T10:03:14;99996.97;;;25.39;48.59
75629;BME280;64213;46.452;16.994;2023-05-07T10:06:19;99999.88;;;25.65;47.58
75629;BME280;64213;46.452;16.994;2023-05-07T10:09:21;100001.00;;;25.78;47.64
75629;BME280;64213;46.452;16.994;2023-05-07T10:12:24;99989.28;;;27.01;45.29
75629;BME280;64213;46.452;16.994;2023-05-07T10:15:26;99991.91;;;28.27;41.53
75629;BME280;64213;46.452;16.994;2023-05-07T10:18:31;99985.13;;;27.72;43.53
75629;BME280;64213;46.452;16.994;2023-05-07T10:21:36;99981.91;;;28.21;43.22
75629;BME280;64213;46.452;16.994;2023-05-07T10:24:39;99976.13;;;27.11;46.34
75629;BME280;64213;46.452;16.994;2023-05-07T10:27:42;99986.72;;;26.25;47.52
75629;BME280;64213;46.452;16.994;2023-05-07T10:34:29;99976.06;;;25.54;49.22
75629;BME280;64213;46.452;16.994;2023-05-07T10:37:31;99982.47;;;25.03;50.17
75629;BME280;64213;46.452;16.994;2023-05-07T10:40:34;99980.75;;;24.96;49.99
75629;BME280;64213;46.452;16.994;2023-05-07T10:43:44;99979.00;;;25.10;50.25
75629;BME280;64213;46.452;16.994;2023-05-07T10:47:12;99981.91;;;25.08;50.13
75629;BME280;64213;46.452;16.994;2023-05-07T10:59:30;99975.00;;;26.18;48.41
75629;BME280;64213;46.452;16.994;2023-05-07T11:06:15;99979.28;;;25.43;49.31
75629;BME280;64213;46.452;16.994;2023-05-07T11:09:17;99977.31;;;25.30;49.56
75629;BME280;64213;46.452;16.994;2023-05-07T11:15:47;99965.59;;;26.07;46.87
75629;BME280;64213;46.452;16.994;2023-05-07T11:18:52;99963.22;;;27.13;45.07
75629;BME280;64213;46.452;16.994;2023-05-07T11:21:54;99965.47;;;27.83;43.31
75629;BME280;64213;46.452;16.994;2023-05-07T11:25:00;99973.66;;;27.36;43.90
75629;BME280;64213;46.452;16.994;2023-05-07T11:28:07;99972.53;;;26.23;44.93
75629;BME280;64213;46.452;16.994;2023-05-07T11:31:11;99974.91;;;25.98;46.61
75629;BME280;64213;46.452;16.994;2023-05-07T11:34:15;99972.22;;;25.20;48.57
75629;BME280;64213;46.452;16.994;2023-05-07T11:37:17;99985.19;;;25.03;49.15
75629;BME280;64213;46.452;16.994;2023-05-07T11:40:19;99977.91;;;24.46;50.34
75629;BME280;64213;46.452;16.994;2023-05-07T11:43:21;99974.84;;;24.05;51.13
75629;BME280;64213;46.452;16.994;2023-05-07T11:46:24;99975.22;;;24.31;50.74
75629;BME280;64213;46.452;16.994;2023-05-07T11:49:26;99970.56;;;24.25;50.54
75629;BME280;64213;46.452;16.994;2023-05-07T11:52:28;99974.19;;;24.32;50.65
75629;BME280;64213;46.452;16.994;2023-05-07T11:55:30;99980.16;;;24.43;50.48
75629;BME280;64213;46.452;16.994;2023-05-07T11:58:32;99975.63;;;24.65;49.96
75629;BME280;64213;46.452;16.994;2023-05-07T12:01:35;99968.75;;;24.47;50.20
75629;BME280;64213;46.452;16.994;2023-05-07T12:04:38;99976.50;;;24.87;49.38
75629;BME280;64213;46.452;16.994;2023-05-07T12:07:40;99967.94;;;25.82;47.68
75629;BME280;64213;46.452;16.994;2023-05-07T12:10:43;99974.12;;;26.04;47.08
75629;BME280;64213;46.452;16.994;2023-05-07T12:13:45;99971.03;;;26.55;46.40
75629;BME280;64213;46.452;16.994;2023-05-07T12:16:47;99979.00;;;25.87;47.85
75629;BME280;64213;46.452;16.994;2023-05-07T12:19:50;99972.31;;;25.83;47.21
75629;BME280;64213;46.452;16.994;2023-05-07T12:22:53;99974.16;;;25.26;48.32
75629;BME280;64213;46.452;16.994;2023-05-07T12:25:55;99971.97;;;24.94;48.84
75629;BME280;64213;46.452;16.994;2023-05-07T12:28:58;99972.78;;;24.51;49.55
75629;BME280;64213;46.452;16.994;2023-05-07T12:32:00;99972.31;;;24.18;50.27
75629;BME280;64213;46.452;16.994;2023-05-07T12:35:02;99970.00;;;24.15;50.31
75629;BME280;64213;46.452;16.994;2023-05-07T12:38:08;99969.44;;;24.05;50.95
75629;BME280;64213;46.452;16.994;2023-05-07T12:41:10;99953.97;;;24.13;50.65
75629;BME280;64213;46.452;16.994;2023-05-07T12:44:15;99957.59;;;24.35;51.12
75629;BME280;64213;46.452;16.994;2023-05-07T12:47:17;99960.09;;;25.38;47.99
75629;BME280;64213;46.452;16.994;2023-05-07T12:50:19;99952.06;;;26.82;44.99
75629;BME280;64213;46.452;16.994;2023-05-07T12:53:25;99946.69;;;27.48;43.44
75629;BME280;64213;46.452;16.994;2023-05-07T12:56:31;99949.44;;;27.28;42.07
75629;BME280;64213;46.452;16.994;2023-05-07T12:59:36;99942.69;;;26.98;43.26
75629;BME280;64213;46.452;16.994;2023-05-07T13:02:40;99945.03;;;27.27;42.17
75629;BME280;64213;46.452;16.994;2023-05-07T13:05:43;99942.53;;;27.39;42.58
75629;BME280;64213;46.452;16.994;2023-05-07T13:08:45;99934.97;;;27.34;42.61
75629;BME280;64213;46.452;16.994;2023-05-07T13:11:47;99932.31;;;28.13;41.12
75629;BME280;64213;46.452;16.994;2023-05-07T13:14:49;99934.03;;;28.00;41.78
75629;BME280;64213;46.452;16.994;2023-05-07T13:17:51;99926.69;;;28.08;41.26
75629;BME280;64213;46.452;16.994;2023-05-07T13:20:53;99918.91;;;28.24;41.21
75629;BME280;64213;46.452;16.994;2023-05-07T13:23:55;99922.44;;;28.70;40.06
75629;BME280;64213;46.452;16.994;2023-05-07T13:26:58;99916.91;;;29.33;38.41
75629;BME280;64213;46.452;16.994;2023-05-07T13:30:00;99910.66;;;28.76;39.15
75629;BME280;64213;46.452;16.994;2023-05-07T13:33:02;99914.97;;;28.84;38.83
75629;BME280;64213;46.452;16.994;2023-05-07T13:36:04;99912.59;;;28.69;39.18
75629;BME280;64213;46.452;16.994;2023-05-07T13:39:07;99904.09;;;28.52;39.26
75629;BME280;64213;46.452;16.994;2023-05-07T13:42:10;99898.78;;;28.25;39.39
75629;BME280;64213;46.452;16.994;2023-05-07T13:45:12;99899.66;;;28.19;39.81
75629;BME280;64213;46.452;16.994;2023-05-07T13:48:15;99899.97;;;28.36;39.34
75629;BME280;64213;46.452;16.994;2023-05-07T13:51:17;99897.13;;;28.24;39.88
75629;BME280;64213;46.452;16.994;2023-05-07T13:54:20;99894.94;;;28.46;39.32
75629;BME280;64213;46.452;16.994;2023-05-07T13:57:22;99894.22;;;27.54;40.93
75629;BME280;64213;46.452;16.994;2023-05-07T14:00:25;99895.41;;;28.30;39.47
75629;BME280;64213;46.452;16.994;2023-05-07T14:03:28;99894.59;;;28.23;39.86
75629;BME280;64213;46.452;16.994;2023-05-07T14:06:30;99888.75;;;28.26;39.72
75629;BME280;64213;46.452;16.994;2023-05-07T14:09:33;99890.22;;;27.77;40.58
75629;BME280;64213;46.452;16.994;2023-05-07T14:12:35;99890.22;;;27.70;40.54
75629;BME280;64213;46.452;16.994;2023-05-07T14:15:37;99893.41;;;27.34;41.31
75629;BME280;64213;46.452;16.994;2023-05-07T14:18:39;99893.38;;;27.61;40.86
75629;BME280;64213;46.452;16.994;2023-05-07T14:21:41;99889.88;;;27.27;41.39
75629;BME280;64213;46.452;16.994;2023-05-07T14:24:43;99893.59;;;27.52;40.90
75629;BME280;64213;46.452;16.994;2023-05-07T14:27:49;99891.41;;;27.94;40.06
75629;BME280;64213;46.452;16.994;2023-05-07T14:30:51;99895.28;;;28.57;38.95
75629;BME280;64213;46.452;16.994;2023-05-07T14:33:53;99900.59;;;28.38;39.13
75629;BME280;64213;46.452;16.994;2023-05-07T14:36:55;99909.44;;;27.69;40.09
75629;BME280;64213;46.452;16.994;2023-05-07T14:39:57;99908.25;;;27.38;40.42
75629;BME280;64213;46.452;16.994;2023-05-07T14:42:59;99902.78;;;27.11;41.28
75629;BME280;64213;46.452;16.994;2023-05-07T14:46:01;99911.63;;;26.26;43.81
75629;BME280;64213;46.452;16.994;2023-05-07T14:49:03;99909.87;;;26.05;43.88
75629;BME280;64213;46.452;16.994;2023-05-07T14:52:06;99902.63;;;25.77;44.57
75629;BME280;64213;46.452;16.994;2023-05-07T14:55:09;99905.47;;;25.62;45.00
75629;BME280;64213;46.452;16.994;2023-05-07T14:58:12;99905.34;;;25.14;45.73
75629;BME280;64213;46.452;16.994;2023-05-07T15:01:14;99911.13;;;25.11;45.72
75629;BME280;64213;46.452;16.994;2023-05-07T15:04:16;99900.00;;;25.21;45.76
75629;BME280;64213;46.452;16.994;2023-05-07T15:07:18;99906.62;;;25.18;45.77
75629;BME280;64213;46.452;16.994;2023-05-07T15:10:20;99897.69;;;24.96;46.03
75629;BME280;64213;46.452;16.994;2023-05-07T15:13:22;99896.34;;;24.86;46.38
75629;BME280;64213;46.452;16.994;2023-05-07T15:16:25;99899.28;;;24.91;46.46
75629;BME280;64213;46.452;16.994;2023-05-07T15:19:27;99901.09;;;24.62;46.74
75629;BME280;64213;46.452;16.994;2023-05-07T15:22:31;99900.38;;;24.17;47.65
75629;BME280;64213;46.452;16.994;2023-05-07T15:25:33;99891.59;;;24.30;47.81
75629;BME280;64213;46.452;16.994;2023-05-07T15:28:36;99894.44;;;24.07;48.44
75629;BME280;64213;46.452;16.994;2023-05-07T15:31:38;99892.53;;;23.71;49.27
75629;BME280;64213;46.452;16.994;2023-05-07T15:34:40;99891.19;;;23.67;49.41
75629;BME280;64213;46.452;16.994;2023-05-07T15:37:42;99873.03;;;23.61;50.20
75629;BME280;64213;46.452;16.994;2023-05-07T15:40:45;99889.88;;;23.63;50.03
75629;BME280;64213;46.452;16.994;2023-05-07T15:43:50;99884.84;;;23.60;50.78
75629;BME280;64213;46.452;16.994;2023-05-07T15:46:53;99884.84;;;23.60;51.65
75629;BME280;64213;46.452;16.994;2023-05-07T15:49:55;99881.31;;;23.44;51.65
75629;BME280;64213;46.452;16.994;2023-05-07T15:52:57;99883.47;;;23.34;51.74
75629;BME280;64213;46.452;16.994;2023-05-07T15:55:59;99878.22;;;23.18;51.81
75629;BME280;64213;46.452;16.994;2023-05-07T15:59:02;99882.22;;;23.07;51.95
75629;BME280;64213;46.452;16.994;2023-05-07T16:02:04;99877.47;;;23.09;51.76
75629;BME280;64213;46.452;16.994;2023-05-07T16:05:07;99885.19;;;22.97;52.17
75629;BME280;64213;46.452;16.994;2023-05-07T16:08:12;99876.72;;;23.01;52.03
75629;BME280;64213;46.452;16.994;2023-05-07T16:11:14;99878.56;;;22.77;52.85
75629;BME280;64213;46.452;16.994;2023-05-07T16:14:16;99883.00;;;22.70;53.01